sensor_id;sensor_type;location;lat;lon;timestamp;P1;durP1;ratioP1;P2;durP2;ratioP2
54845;SDS011;53889;50.084;8.646;2024-01-10T00:00:07;33.93;;;15.47;;
54845;SDS011;53889;50.084;8.646;2024-01-10T00:02:35;35.20;;;16.27;;
54845;SDS011;53889;50.084;8.646;2024-01-10T00:05:01;35.47;;;16.00;;
54845;SDS011;53889;50.084;8.646;2024-01-10T00:07:29;31.43;;;14.43;;
54845;SDS011;53889;50.084;8.646;2024-01-10T00:09:56;37.60;;;15.50;;
54845;SDS011;53889;50.084;8.646;2024-01-10T00:12:25;33.00;;;14.98;;
54845;SDS011;53889;50.084;8.646;2024-01-10T00:14:51;36.80;;;15.67;;
54845;SDS011;53889;50.084;8.646;2024-01-10T00:17:19;34.60;;;15.77;;
54845;SDS011;53889;50.084;8.646;2024-01-10T00:19:47;37.25;;;16.25;;
54845;SDS011;53889;50.084;8.646;2024-01-10T00:22:14;31.58;;;15.38;;
54845;SDS011;53889;50.084;8.646;2024-01-10T00:24:41;35.35;;;15.85;;
54845;SDS011;53889;50.084;8.646;2024-01-10T00:27:08;33.35;;;16.15;;
54845;SDS011;53889;50.084;8.646;2024-01-10T00:29:35;36.07;;;15.90;;
54845;SDS011;53889;50.084;8.646;2024-01-10T00:32:02;34.27;;;15.73;;
54845;SDS011;53889;50.084;8.646;2024-01-10T00:34:30;39.27;;;16.50;;
54845;SDS011;53889;50.084;8.646;2024-01-10T00:36:57;37.03;;;16.23;;
54845;SDS011;53889;50.084;8.646;2024-01-10T00:39:24;37.03;;;16.13;;
54845;SDS011;53889;50.084;8.646;2024-01-10T00:41:50;34.90;;;15.33;;
54845;SDS011;53889;50.084;8.646;2024-01-10T00:44:18;36.13;;;15.52;;
54845;SDS011;53889;50.084;8.646;2024-01-10T00:46:45;35.87;;;15.43;;
54845;SDS011;53889;50.084;8.646;2024-01-10T00:49:11;35.53;;;16.13;;
54845;SDS011;53889;50.084;8.646;2024-01-10T00:51:39;36.35;;;16.30;;
54845;SDS011;53889;50.084;8.646;2024-01-10T00:54:06;33.77;;;15.70;;
54845;SDS011;53889;50.084;8.646;2024-01-10T00:56:33;37.07;;;17.43;;
54845;SDS011;53889;50.084;8.646;2024-01-10T00:59:00;34.47;;;16.07;;
54845;SDS011;53889;50.084;8.646;2024-01-10T01:01:28;34.03;;;16.03;;
54845;SDS011;53889;50.084;8.646;2024-01-10T01:03:55;37.97;;;17.63;;
54845;SDS011;53889;50.084;8.646;2024-01-10T01:06:22;35.47;;;16.30;;
54845;SDS011;53889;50.084;8.646;2024-01-10T01:08:50;33.40;;;16.20;;
54845;SDS011;53889;50.084;8.646;2024-01-10T01:11:17;37.20;;;16.47;;
54845;SDS011;53889;50.084;8.646;2024-01-10T01:13:44;38.77;;;16.40;;
54845;SDS011;53889;50.084;8.646;2024-01-10T01:16:11;35.77;;;17.07;;
54845;SDS011;53889;50.084;8.646;2024-01-10T01:18:38;34.30;;;17.37;;
54845;SDS011;53889;50.084;8.646;2024-01-10T01:21:07;36.80;;;15.60;;
54845;SDS011;53889;50.084;8.646;2024-01-10T01:23:34;39.07;;;17.03;;
54845;SDS011;53889;50.084;8.646;2024-01-10T01:26:03;33.70;;;15.70;;
54845;SDS011;53889;50.084;8.646;2024-01-10T01:28:30;35.40;;;17.23;;
54845;SDS011;53889;50.084;8.646;2024-01-10T01:30:57;37.60;;;16.23;;
54845;SDS011;53889;50.084;8.646;2024-01-10T01:33:24;38.20;;;16.17;;
54845;SDS011;53889;50.084;8.646;2024-01-10T01:35:51;38.07;;;16.40;;
54845;SDS011;53889;50.084;8.646;2024-01-10T01:38:19;39.33;;;17.00;;
54845;SDS011;53889;50.084;8.646;2024-01-10T01:40:45;37.57;;;17.33;;
54845;SDS011;53889;50.084;8.646;2024-01-10T01:43:20;37.63;;;16.87;;
54845;SDS011;53889;50.084;8.646;2024-01-10T01:45:48;34.30;;;16.33;;
54845;SDS011;53889;50.084;8.646;2024-01-10T01:48:17;37.57;;;17.60;;
54845;SDS011;53889;50.084;8.646;2024-01-10T01:50:44;42.33;;;17.13;;
54845;SDS011;53889;50.084;8.646;2024-01-10T01:53:12;35.50;;;17.57;;
54845;SDS011;53889;50.084;8.646;2024-01-10T01:55:39;38.50;;;16.47;;
54845;SDS011;53889;50.084;8.646;2024-01-10T01:58:06;41.73;;;17.97;;
54845;SDS011;53889;50.084;8.646;2024-01-10T02:00:35;40.57;;;17.80;;
54845;SDS011;53889;50.084;8.646;2024-01-10T02:03:03;39.30;;;17.00;;
54845;SDS011;53889;50.084;8.646;2024-01-10T02:05:32;41.73;;;18.00;;
54845;SDS011;53889;50.084;8.646;2024-01-10T02:07:59;38.17;;;17.57;;
54845;SDS011;53889;50.084;8.646;2024-01-10T02:10:26;38.77;;;17.60;;
54845;SDS011;53889;50.084;8.646;2024-01-10T02:12:52;36.80;;;16.20;;
54845;SDS011;53889;50.084;8.646;2024-01-10T02:15:19;37.63;;;17.37;;
54845;SDS011;53889;50.084;8.646;2024-01-10T02:17:47;36.13;;;16.67;;
54845;SDS011;53889;50.084;8.646;2024-01-10T02:20:14;36.23;;;16.93;;
54845;SDS011;53889;50.084;8.646;2024-01-10T02:22:43;40.93;;;17.77;;
54845;SDS011;53889;50.084;8.646;2024-01-10T02:25:11;35.27;;;16.73;;
54845;SDS011;53889;50.084;8.646;2024-01-10T02:27:39;37.23;;;16.90;;
54845;SDS011;53889;50.084;8.646;2024-01-10T02:30:07;37.03;;;16.37;;
54845;SDS011;53889;50.084;8.646;2024-01-10T02:32:36;37.03;;;17.43;;
54845;SDS011;53889;50.084;8.646;2024-01-10T02:35:03;41.23;;;16.53;;
54845;SDS011;53889;50.084;8.646;2024-01-10T02:37:30;39.40;;;17.53;;
54845;SDS011;53889;50.084;8.646;2024-01-10T02:39:57;38.37;;;17.50;;
54845;SDS011;53889;50.084;8.646;2024-01-10T02:42:25;37.10;;;17.07;;
54845;SDS011;53889;50.084;8.646;2024-01-10T02:44:53;36.23;;;17.73;;
54845;SDS011;53889;50.084;8.646;2024-01-10T02:47:20;36.63;;;16.53;;
54845;SDS011;53889;50.084;8.646;2024-01-10T02:49:46;38.13;;;17.07;;
54845;SDS011;53889;50.084;8.646;2024-01-10T02:52:13;39.50;;;17.60;;
54845;SDS011;53889;50.084;8.646;2024-01-10T02:54:40;39.60;;;17.03;;
54845;SDS011;53889;50.084;8.646;2024-01-10T02:57:07;37.37;;;17.47;;
54845;SDS011;53889;50.084;8.646;2024-01-10T02:59:35;37.13;;;16.53;;
54845;SDS011;53889;50.084;8.646;2024-01-10T03:02:01;37.63;;;17.57;;
54845;SDS011;53889;50.084;8.646;2024-01-10T03:04:28;39.00;;;18.13;;
54845;SDS011;53889;50.084;8.646;2024-01-10T03:06:55;39.50;;;17.27;;
54845;SDS011;53889;50.084;8.646;2024-01-10T03:09:22;39.37;;;17.13;;
54845;SDS011;53889;50.084;8.646;2024-01-10T03:11:49;37.43;;;17.03;;
54845;SDS011;53889;50.084;8.646;2024-01-10T03:14:15;35.80;;;17.30;;
54845;SDS011;53889;50.084;8.646;2024-01-10T03:16:43;43.73;;;18.03;;
54845;SDS011;53889;50.084;8.646;2024-01-10T03:19:11;37.40;;;17.40;;
54845;SDS011;53889;50.084;8.646;2024-01-10T03:21:38;37.00;;;17.23;;
54845;SDS011;53889;50.084;8.646;2024-01-10T03:24:05;36.97;;;16.77;;
54845;SDS011;53889;50.084;8.646;2024-01-10T03:26:32;38.70;;;16.97;;
54845;SDS011;53889;50.084;8.646;2024-01-10T03:28:59;37.97;;;16.87;;
54845;SDS011;53889;50.084;8.646;2024-01-10T03:31:26;40.77;;;17.47;;
54845;SDS011;53889;50.084;8.646;2024-01-10T03:33:55;40.93;;;17.80;;
54845;SDS011;53889;50.084;8.646;2024-01-10T03:36:24;41.50;;;17.53;;
54845;SDS011;53889;50.084;8.646;2024-01-10T03:38:51;40.17;;;17.77;;
54845;SDS011;53889;50.084;8.646;2024-01-10T03:41:19;38.60;;;18.17;;
54845;SDS011;53889;50.084;8.646;2024-01-10T03:43:47;39.60;;;16.87;;
54845;SDS011;53889;50.084;8.646;2024-01-10T03:46:15;41.77;;;17.47;;
54845;SDS011;53889;50.084;8.646;2024-01-10T03:48:43;38.63;;;17.73;;
54845;SDS011;53889;50.084;8.646;2024-01-10T03:51:15;36.73;;;16.53;;
54845;SDS011;53889;50.084;8.646;2024-01-10T03:53:43;41.07;;;17.63;;
54845;SDS011;53889;50.084;8.646;2024-01-10T03:56:11;39.13;;;17.17;;
54845;SDS011;53889;50.084;8.646;2024-01-10T03:58:39;36.20;;;16.00;;
54845;SDS011;53889;50.084;8.646;2024-01-10T04:01:06;38.47;;;16.90;;
54845;SDS011;53889;50.084;8.646;2024-01-10T04:03:33;37.60;;;17.10;;
54845;SDS011;53889;50.084;8.646;2024-01-10T04:06:01;38.50;;;17.77;;
54845;SDS011;53889;50.084;8.646;2024-01-10T04:08:29;38.70;;;16.73;;
54845;SDS011;53889;50.084;8.646;2024-01-10T04:10:56;39.77;;;17.40;;
54845;SDS011;53889;50.084;8.646;2024-01-10T04:13:24;37.13;;;17.00;;
54845;SDS011;53889;50.084;8.646;2024-01-10T04:15:52;35.47;;;17.40;;
54845;SDS011;53889;50.084;8.646;2024-01-10T04:18:19;37.50;;;17.03;;
54845;SDS011;53889;50.084;8.646;2024-01-10T04:20:46;38.03;;;17.37;;
54845;SDS011;53889;50.084;8.646;2024-01-10T04:23:14;41.33;;;17.23;;
54845;SDS011;53889;50.084;8.646;2024-01-10T04:25:42;39.77;;;18.57;;
54845;SDS011;53889;50.084;8.646;2024-01-10T04:28:09;42.77;;;18.50;;
54845;SDS011;53889;50.084;8.646;2024-01-10T04:30:37;37.97;;;16.87;;
54845;SDS011;53889;50.084;8.646;2024-01-10T04:33:04;43.50;;;18.50;;
54845;SDS011;53889;50.084;8.646;2024-01-10T04:35:31;39.90;;;17.40;;
54845;SDS011;53889;50.084;8.646;2024-01-10T04:37:58;36.80;;;17.40;;
54845;SDS011;53889;50.084;8.646;2024-01-10T04:40:25;40.37;;;17.93;;
54845;SDS011;53889;50.084;8.646;2024-01-10T04:42:54;39.00;;;17.50;;
54845;SDS011;53889;50.084;8.646;2024-01-10T04:45:21;40.20;;;17.10;;
54845;SDS011;53889;50.084;8.646;2024-01-10T04:47:48;38.90;;;17.30;;
54845;SDS011;53889;50.084;8.646;2024-01-10T04:50:15;38.50;;;16.67;;
54845;SDS011;53889;50.084;8.646;2024-01-10T04:52:42;37.57;;;17.20;;
54845;SDS011;53889;50.084;8.646;2024-01-10T04:55:09;41.93;;;16.47;;
54845;SDS011;53889;50.084;8.646;2024-01-10T04:57:36;40.10;;;17.33;;
54845;SDS011;53889;50.084;8.646;2024-01-10T05:00:06;36.20;;;15.60;;
54845;SDS011;53889;50.084;8.646;2024-01-10T05:02:33;42.37;;;17.87;;
54845;SDS011;53889;50.084;8.646;2024-01-10T05:05:00;39.63;;;17.03;;
54845;SDS011;53889;50.084;8.646;2024-01-10T05:07:29;33.70;;;16.03;;
54845;SDS011;53889;50.084;8.646;2024-01-10T05:09:56;35.40;;;16.33;;
54845;SDS011;53889;50.084;8.646;2024-01-10T05:12:23;38.57;;;16.90;;
54845;SDS011;53889;50.084;8.646;2024-01-10T05:14:50;37.47;;;17.40;;
54845;SDS011;53889;50.084;8.646;2024-01-10T05:17:19;42.13;;;17.50;;
54845;SDS011;53889;50.084;8.646;2024-01-10T05:19:46;40.40;;;17.30;;
54845;SDS011;53889;50.084;8.646;2024-01-10T05:22:13;37.70;;;16.83;;
54845;SDS011;53889;50.084;8.646;2024-01-10T05:24:41;41.60;;;18.00;;
54845;SDS011;53889;50.084;8.646;2024-01-10T05:27:08;39.93;;;17.57;;
54845;SDS011;53889;50.084;8.646;2024-01-10T05:29:36;38.33;;;16.77;;
54845;SDS011;53889;50.084;8.646;2024-01-10T05:32:03;39.93;;;17.97;;
54845;SDS011;53889;50.084;8.646;2024-01-10T05:34:32;41.97;;;17.67;;
54845;SDS011;53889;50.084;8.646;2024-01-10T05:36:59;39.03;;;17.10;;
54845;SDS011;53889;50.084;8.646;2024-01-10T05:39:26;35.87;;;16.83;;
54845;SDS011;53889;50.084;8.646;2024-01-10T05:41:53;36.97;;;17.73;;
54845;SDS011;53889;50.084;8.646;2024-01-10T05:44:21;39.67;;;17.17;;
54845;SDS011;53889;50.084;8.646;2024-01-10T05:46:49;38.20;;;17.47;;
54845;SDS011;53889;50.084;8.646;2024-01-10T05:49:16;36.73;;;16.97;;
54845;SDS011;53889;50.084;8.646;2024-01-10T05:51:45;46.13;;;17.63;;
54845;SDS011;53889;50.084;8.646;2024-01-10T05:54:12;33.63;;;15.97;;
54845;SDS011;53889;50.084;8.646;2024-01-10T05:56:39;36.57;;;17.20;;
54845;SDS011;53889;50.084;8.646;2024-01-10T05:59:06;39.23;;;17.57;;
54845;SDS011;53889;50.084;8.646;2024-01-10T06:01:33;38.80;;;17.77;;
54845;SDS011;53889;50.084;8.646;2024-01-10T06:03:59;40.60;;;17.73;;
54845;SDS011;53889;50.084;8.646;2024-01-10T06:06:26;39.27;;;17.47;;
54845;SDS011;53889;50.084;8.646;2024-01-10T06:08:54;37.90;;;17.03;;
54845;SDS011;53889;50.084;8.646;2024-01-10T06:11:22;37.17;;;16.67;;
54845;SDS011;53889;50.084;8.646;2024-01-10T06:13:49;40.00;;;17.33;;
54845;SDS011;53889;50.084;8.646;2024-01-10T06:16:16;37.10;;;17.20;;
54845;SDS011;53889;50.084;8.646;2024-01-10T06:18:43;41.03;;;17.60;;
54845;SDS011;53889;50.084;8.646;2024-01-10T06:21:10;39.37;;;17.73;;
54845;SDS011;53889;50.084;8.646;2024-01-10T06:23:37;44.80;;;18.33;;
54845;SDS011;53889;50.084;8.646;2024-01-10T06:26:05;39.87;;;18.37;;
54845;SDS011;53889;50.084;8.646;2024-01-10T06:28:32;36.80;;;17.33;;
54845;SDS011;53889;50.084;8.646;2024-01-10T06:31:00;38.60;;;17.97;;
54845;SDS011;53889;50.084;8.646;2024-01-10T06:33:27;38.93;;;17.43;;
54845;SDS011;53889;50.084;8.646;2024-01-10T06:35:55;42.63;;;18.67;;
54845;SDS011;53889;50.084;8.646;2024-01-10T06:38:23;37.00;;;17.40;;
54845;SDS011;53889;50.084;8.646;2024-01-10T06:40:51;39.13;;;17.67;;
54845;SDS011;53889;50.084;8.646;2024-01-10T06:43:19;38.40;;;17.30;;
54845;SDS011;53889;50.084;8.646;2024-01-10T06:45:46;41.93;;;18.43;;
54845;SDS011;53889;50.084;8.646;2024-01-10T06:48:13;38.50;;;17.90;;
54845;SDS011;53889;50.084;8.646;2024-01-10T06:50:41;43.23;;;18.30;;
54845;SDS011;53889;50.084;8.646;2024-01-10T06:53:09;41.23;;;19.30;;
54845;SDS011;53889;50.084;8.646;2024-01-10T06:55:36;41.70;;;18.87;;
54845;SDS011;53889;50.084;8.646;2024-01-10T06:58:03;41.27;;;17.70;;
54845;SDS011;53889;50.084;8.646;2024-01-10T07:00:30;41.50;;;17.83;;
54845;SDS011;53889;50.084;8.646;2024-01-10T07:02:57;37.73;;;17.03;;
54845;SDS011;53889;50.084;8.646;2024-01-10T07:05:28;42.93;;;18.20;;
54845;SDS011;53889;50.084;8.646;2024-01-10T07:07:56;38.07;;;18.23;;
54845;SDS011;53889;50.084;8.646;2024-01-10T07:10:24;39.00;;;18.00;;
54845;SDS011;53889;50.084;8.646;2024-01-10T07:12:52;40.23;;;16.90;;
54845;SDS011;53889;50.084;8.646;2024-01-10T07:15:23;41.60;;;17.03;;
54845;SDS011;53889;50.084;8.646;2024-01-10T07:17:51;38.73;;;17.90;;
54845;SDS011;53889;50.084;8.646;2024-01-10T07:20:18;46.97;;;18.23;;
54845;SDS011;53889;50.084;8.646;2024-01-10T07:22:45;41.13;;;17.83;;
54845;SDS011;53889;50.084;8.646;2024-01-10T07:25:12;36.77;;;17.67;;
54845;SDS011;53889;50.084;8.646;2024-01-10T07:27:40;37.30;;;17.07;;
54845;SDS011;53889;50.084;8.646;2024-01-10T07:30:07;42.37;;;18.20;;
54845;SDS011;53889;50.084;8.646;2024-01-10T07:32:38;41.27;;;18.97;;
54845;SDS011;53889;50.084;8.646;2024-01-10T07:35:08;37.10;;;17.80;;
54845;SDS011;53889;50.084;8.646;2024-01-10T07:37:35;41.60;;;17.57;;
54845;SDS011;53889;50.084;8.646;2024-01-10T07:40:03;35.33;;;16.97;;
54845;SDS011;53889;50.084;8.646;2024-01-10T07:42:31;42.80;;;18.30;;
54845;SDS011;53889;50.084;8.646;2024-01-10T07:44:58;40.33;;;18.03;;
54845;SDS011;53889;50.084;8.646;2024-01-10T07:47:25;43.27;;;19.30;;
54845;SDS011;53889;50.084;8.646;2024-01-10T07:49:51;39.58;;;16.98;;
54845;SDS011;53889;50.084;8.646;2024-01-10T07:52:20;39.30;;;17.43;;
54845;SDS011;53889;50.084;8.646;2024-01-10T07:54:47;37.03;;;16.57;;
54845;SDS011;53889;50.084;8.646;2024-01-10T07:57:15;38.97;;;18.20;;
54845;SDS011;53889;50.084;8.646;2024-01-10T07:59:44;42.80;;;18.20;;
54845;SDS011;53889;50.084;8.646;2024-01-10T08:02:11;40.50;;;17.08;;
54845;SDS011;53889;50.084;8.646;2024-01-10T08:04:39;37.90;;;18.03;;
54845;SDS011;53889;50.084;8.646;2024-01-10T08:07:06;41.92;;;18.55;;
54845;SDS011;53889;50.084;8.646;2024-01-10T08:09:36;38.47;;;16.92;;
54845;SDS011;53889;50.084;8.646;2024-01-10T08:12:04;40.20;;;18.17;;
54845;SDS011;53889;50.084;8.646;2024-01-10T08:14:31;40.50;;;17.40;;
54845;SDS011;53889;50.084;8.646;2024-01-10T08:16:58;34.38;;;16.40;;
54845;SDS011;53889;50.084;8.646;2024-01-10T08:19:26;35.30;;;16.80;;
54845;SDS011;53889;50.084;8.646;2024-01-10T08:21:53;36.80;;;16.35;;
54845;SDS011;53889;50.084;8.646;2024-01-10T08:24:21;37.33;;;17.50;;
54845;SDS011;53889;50.084;8.646;2024-01-10T08:26:50;36.17;;;17.58;;
54845;SDS011;53889;50.084;8.646;2024-01-10T08:29:18;36.28;;;17.48;;
54845;SDS011;53889;50.084;8.646;2024-01-10T08:31:46;33.75;;;16.90;;
54845;SDS011;53889;50.084;8.646;2024-01-10T08:34:13;39.00;;;17.08;;
54845;SDS011;53889;50.084;8.646;2024-01-10T08:36:41;37.35;;;17.88;;
54845;SDS011;53889;50.084;8.646;2024-01-10T08:39:08;36.05;;;16.27;;
54845;SDS011;53889;50.084;8.646;2024-01-10T08:41:36;43.67;;;18.08;;
54845;SDS011;53889;50.084;8.646;2024-01-10T08:44:10;52.90;;;22.58;;
54845;SDS011;53889;50.084;8.646;2024-01-10T08:46:38;64.13;;;25.40;;
54845;SDS011;53889;50.084;8.646;2024-01-10T08:49:05;44.97;;;19.70;;
54845;SDS011;53889;50.084;8.646;2024-01-10T08:51:32;55.88;;;23.48;;
54845;SDS011;53889;50.084;8.646;2024-01-10T08:54:00;44.53;;;19.48;;
54845;SDS011;53889;50.084;8.646;2024-01-10T08:56:29;39.40;;;17.35;;
54845;SDS011;53889;50.084;8.646;2024-01-10T08:58:56;38.83;;;17.33;;
54845;SDS011;53889;50.084;8.646;2024-01-10T09:01:25;37.30;;;16.90;;
54845;SDS011;53889;50.084;8.646;2024-01-10T09:03:52;40.38;;;18.08;;
54845;SDS011;53889;50.084;8.646;2024-01-10T09:06:26;36.92;;;17.92;;
54845;SDS011;53889;50.084;8.646;2024-01-10T09:08:54;38.47;;;17.58;;
54845;SDS011;53889;50.084;8.646;2024-01-10T09:11:22;37.67;;;17.83;;
54845;SDS011;53889;50.084;8.646;2024-01-10T09:13:52;40.45;;;17.65;;
54845;SDS011;53889;50.084;8.646;2024-01-10T09:16:20;39.53;;;17.52;;
54845;SDS011;53889;50.084;8.646;2024-01-10T09:18:51;37.15;;;18.10;;
54845;SDS011;53889;50.084;8.646;2024-01-10T09:21:25;35.42;;;17.48;;
54845;SDS011;53889;50.084;8.646;2024-01-10T09:23:59;36.30;;;17.27;;
54845;SDS011;53889;50.084;8.646;2024-01-10T09:27:27;38.03;;;17.20;;
54845;SDS011;53889;50.084;8.646;2024-01-10T09:29:58;38.47;;;17.23;;
54845;SDS011;53889;50.084;8.646;2024-01-10T09:32:26;38.70;;;17.55;;
54845;SDS011;53889;50.084;8.646;2024-01-10T09:34:56;37.13;;;16.95;;
54845;SDS011;53889;50.084;8.646;2024-01-10T09:37:25;37.83;;;17.30;;
54845;SDS011;53889;50.084;8.646;2024-01-10T09:39:53;40.35;;;17.33;;
54845;SDS011;53889;50.084;8.646;2024-01-10T09:42:20;34.85;;;15.70;;
54845;SDS011;53889;50.084;8.646;2024-01-10T09:44:52;35.15;;;16.55;;
54845;SDS011;53889;50.084;8.646;2024-01-10T09:47:37;34.22;;;16.58;;
54845;SDS011;53889;50.084;8.646;2024-01-10T10:07:23;38.58;;;17.10;;
54845;SDS011;53889;50.084;8.646;2024-01-10T10:09:52;36.78;;;17.67;;
54845;SDS011;53889;50.084;8.646;2024-01-10T10:12:21;37.28;;;17.55;;
54845;SDS011;53889;50.084;8.646;2024-01-10T10:14:49;32.72;;;16.42;;
54845;SDS011;53889;50.084;8.646;2024-01-10T10:17:18;38.17;;;17.83;;
54845;SDS011;53889;50.084;8.646;2024-01-10T10:19:49;35.80;;;17.27;;
54845;SDS011;53889;50.084;8.646;2024-01-10T10:22:16;35.47;;;16.95;;
54845;SDS011;53889;50.084;8.646;2024-01-10T10:24:47;35.95;;;17.50;;
54845;SDS011;53889;50.084;8.646;2024-01-10T10:27:16;36.75;;;17.25;;
54845;SDS011;53889;50.084;8.646;2024-01-10T10:29:44;37.80;;;18.05;;
54845;SDS011;53889;50.084;8.646;2024-01-10T10:32:12;37.90;;;18.67;;
54845;SDS011;53889;50.084;8.646;2024-01-10T10:34:53;37.15;;;17.25;;
54845;SDS011;53889;50.084;8.646;2024-01-10T10:37:57;41.10;;;18.23;;
54845;SDS011;53889;50.084;8.646;2024-01-10T10:40:31;40.00;;;17.42;;
54845;SDS011;53889;50.084;8.646;2024-01-10T10:43:30;34.92;;;16.42;;
54845;SDS011;53889;50.084;8.646;2024-01-10T10:46:26;36.97;;;17.38;;
54845;SDS011;53889;50.084;8.646;2024-01-10T10:57:22;40.58;;;18.90;;
54845;SDS011;53889;50.084;8.646;2024-01-10T11:00:25;38.33;;;17.17;;
54845;SDS011;53889;50.084;8.646;2024-01-10T11:04:35;42.05;;;18.63;;
54845;SDS011;53889;50.084;8.646;2024-01-10T11:10:27;34.80;;;17.38;;
54845;SDS011;53889;50.084;8.646;2024-01-10T11:13:10;41.13;;;18.33;;
54845;SDS011;53889;50.084;8.646;2024-01-10T11:16:37;40.35;;;16.85;;
54845;SDS011;53889;50.084;8.646;2024-01-10T11:22:43;38.40;;;17.90;;
54845;SDS011;53889;50.084;8.646;2024-01-10T11:26:02;35.25;;;17.75;;
54845;SDS011;53889;50.084;8.646;2024-01-10T11:28:31;36.38;;;18.10;;
54845;SDS011;53889;50.084;8.646;2024-01-10T11:31:05;36.65;;;17.75;;
54845;SDS011;53889;50.084;8.646;2024-01-10T11:33:36;36.95;;;17.42;;
54845;SDS011;53889;50.084;8.646;2024-01-10T11:36:12;35.85;;;17.75;;
54845;SDS011;53889;50.084;8.646;2024-01-10T11:38:41;38.35;;;18.25;;
54845;SDS011;53889;50.084;8.646;2024-01-10T11:41:11;36.22;;;17.98;;
54845;SDS011;53889;50.084;8.646;2024-01-10T11:43:41;33.95;;;16.83;;
54845;SDS011;53889;50.084;8.646;2024-01-10T11:46:08;37.85;;;18.58;;
54845;SDS011;53889;50.084;8.646;2024-01-10T11:48:37;35.30;;;17.40;;
54845;SDS011;53889;50.084;8.646;2024-01-10T11:51:06;35.45;;;17.15;;
54845;SDS011;53889;50.084;8.646;2024-01-10T11:53:40;40.00;;;18.27;;
54845;SDS011;53889;50.084;8.646;2024-01-10T11:56:11;37.72;;;17.70;;
54845;SDS011;53889;50.084;8.646;2024-01-10T11:58:53;37.15;;;17.15;;
54845;SDS011;53889;50.084;8.646;2024-01-10T12:01:32;37.50;;;17.55;;
54845;SDS011;53889;50.084;8.646;2024-01-10T12:04:13;34.58;;;16.90;;
54845;SDS011;53889;50.084;8.646;2024-01-10T12:06:48;37.42;;;17.98;;
54845;SDS011;53889;50.084;8.646;2024-01-10T12:09:17;36.13;;;17.35;;
54845;SDS011;53889;50.084;8.646;2024-01-10T12:11:44;37.53;;;18.45;;
54845;SDS011;53889;50.084;8.646;2024-01-10T12:14:13;36.05;;;17.20;;
54845;SDS011;53889;50.084;8.646;2024-01-10T12:16:42;36.67;;;17.10;;
54845;SDS011;53889;50.084;8.646;2024-01-10T12:19:10;35.97;;;18.13;;
54845;SDS011;53889;50.084;8.646;2024-01-10T12:21:38;39.88;;;18.10;;
54845;SDS011;53889;50.084;8.646;2024-01-10T12:24:17;33.70;;;17.40;;
54845;SDS011;53889;50.084;8.646;2024-01-10T12:26:44;35.83;;;16.95;;
54845;SDS011;53889;50.084;8.646;2024-01-10T12:29:13;35.20;;;17.25;;
54845;SDS011;53889;50.084;8.646;2024-01-10T12:31:45;34.30;;;16.95;;
54845;SDS011;53889;50.084;8.646;2024-01-10T12:34:20;33.15;;;16.05;;
54845;SDS011;53889;50.084;8.646;2024-01-10T12:36:48;31.15;;;16.48;;
54845;SDS011;53889;50.084;8.646;2024-01-10T12:39:15;35.88;;;17.90;;
54845;SDS011;53889;50.084;8.646;2024-01-10T12:41:43;32.58;;;16.65;;
54845;SDS011;53889;50.084;8.646;2024-01-10T12:44:11;33.63;;;16.50;;
54845;SDS011;53889;50.084;8.646;2024-01-10T12:46:50;35.92;;;17.63;;
54845;SDS011;53889;50.084;8.646;2024-01-10T12:49:18;30.67;;;15.50;;
54845;SDS011;53889;50.084;8.646;2024-01-10T12:51:46;32.95;;;17.30;;
54845;SDS011;53889;50.084;8.646;2024-01-10T12:54:17;32.22;;;16.23;;
54845;SDS011;53889;50.084;8.646;2024-01-10T12:56:45;31.10;;;16.08;;
54845;SDS011;53889;50.084;8.646;2024-01-10T12:59:12;32.95;;;16.30;;
54845;SDS011;53889;50.084;8.646;2024-01-10T13:01:40;29.00;;;15.38;;
54845;SDS011;53889;50.084;8.646;2024-01-10T13:04:09;29.67;;;15.68;;
54845;SDS011;53889;50.084;8.646;2024-01-10T13:06:37;27.98;;;16.05;;
54845;SDS011;53889;50.084;8.646;2024-01-10T13:09:04;28.80;;;16.25;;
54845;SDS011;53889;50.084;8.646;2024-01-10T13:11:31;28.08;;;16.25;;
54845;SDS011;53889;50.084;8.646;2024-01-10T13:13:58;28.95;;;15.57;;
54845;SDS011;53889;50.084;8.646;2024-01-10T13:16:25;27.83;;;15.35;;
54845;SDS011;53889;50.084;8.646;2024-01-10T13:18:52;30.50;;;16.48;;
54845;SDS011;53889;50.084;8.646;2024-01-10T13:22:01;32.13;;;17.92;;
54845;SDS011;53889;50.084;8.646;2024-01-10T13:24:30;29.23;;;16.75;;
54845;SDS011;53889;50.084;8.646;2024-01-10T13:26:57;27.02;;;15.88;;
54845;SDS011;53889;50.084;8.646;2024-01-10T13:33:16;30.30;;;16.15;;
54845;SDS011;53889;50.084;8.646;2024-01-10T13:36:03;28.15;;;15.20;;
54845;SDS011;53889;50.084;8.646;2024-01-10T13:38:51;27.38;;;14.98;;
54845;SDS011;53889;50.084;8.646;2024-01-10T13:41:19;27.05;;;15.43;;
54845;SDS011;53889;50.084;8.646;2024-01-10T13:43:46;30.50;;;14.73;;
54845;SDS011;53889;50.084;8.646;2024-01-10T13:46:13;28.73;;;15.63;;
54845;SDS011;53889;50.084;8.646;2024-01-10T13:48:43;26.30;;;14.35;;
54845;SDS011;53889;50.084;8.646;2024-01-10T13:51:10;23.10;;;13.48;;
54845;SDS011;53889;50.084;8.646;2024-01-10T13:53:37;26.90;;;14.13;;
54845;SDS011;53889;50.084;8.646;2024-01-10T13:56:09;26.42;;;13.38;;
54845;SDS011;53889;50.084;8.646;2024-01-10T13:58:37;28.50;;;15.05;;
54845;SDS011;53889;50.084;8.646;2024-01-10T14:01:05;23.83;;;12.43;;
54845;SDS011;53889;50.084;8.646;2024-01-10T14:03:40;24.87;;;12.93;;
54845;SDS011;53889;50.084;8.646;2024-01-10T14:06:06;23.05;;;13.02;;
54845;SDS011;53889;50.084;8.646;2024-01-10T14:08:33;23.83;;;13.35;;
54845;SDS011;53889;50.084;8.646;2024-01-10T14:11:02;25.48;;;13.68;;
54845;SDS011;53889;50.084;8.646;2024-01-10T14:13:31;27.13;;;14.45;;
54845;SDS011;53889;50.084;8.646;2024-01-10T14:15:59;27.40;;;14.45;;
54845;SDS011;53889;50.084;8.646;2024-01-10T14:18:26;29.70;;;14.65;;
54845;SDS011;53889;50.084;8.646;2024-01-10T14:20:52;29.67;;;15.30;;
54845;SDS011;53889;50.084;8.646;2024-01-10T14:23:19;28.08;;;14.63;;
54845;SDS011;53889;50.084;8.646;2024-01-10T14:25:50;30.88;;;15.65;;
54845;SDS011;53889;50.084;8.646;2024-01-10T14:28:18;27.85;;;15.20;;
54845;SDS011;53889;50.084;8.646;2024-01-10T14:30:47;28.65;;;14.73;;
54845;SDS011;53889;50.084;8.646;2024-01-10T14:33:14;30.20;;;14.40;;
54845;SDS011;53889;50.084;8.646;2024-01-10T14:35:42;27.85;;;14.57;;
54845;SDS011;53889;50.084;8.646;2024-01-10T14:38:09;27.63;;;14.57;;
54845;SDS011;53889;50.084;8.646;2024-01-10T14:40:37;30.88;;;15.80;;
54845;SDS011;53889;50.084;8.646;2024-01-10T14:43:04;27.75;;;13.45;;
54845;SDS011;53889;50.084;8.646;2024-01-10T14:45:31;27.92;;;13.82;;
54845;SDS011;53889;50.084;8.646;2024-01-10T14:47:59;30.00;;;14.68;;
54845;SDS011;53889;50.084;8.646;2024-01-10T14:50:28;30.30;;;14.68;;
54845;SDS011;53889;50.084;8.646;2024-01-10T14:52:56;34.00;;;14.88;;
54845;SDS011;53889;50.084;8.646;2024-01-10T14:55:23;29.23;;;14.32;;
54845;SDS011;53889;50.084;8.646;2024-01-10T14:57:51;31.48;;;14.50;;
54845;SDS011;53889;50.084;8.646;2024-01-10T15:00:18;31.60;;;15.52;;
54845;SDS011;53889;50.084;8.646;2024-01-10T15:02:45;33.30;;;16.20;;
54845;SDS011;53889;50.084;8.646;2024-01-10T15:05:14;35.30;;;15.95;;
54845;SDS011;53889;50.084;8.646;2024-01-10T15:07:43;34.63;;;16.45;;
54845;SDS011;53889;50.084;8.646;2024-01-10T15:10:26;34.50;;;16.58;;